»·PEaware :: N698SP KSBA-KBUR

N698SP :: KSBA-KBUR

FLIGHT INFORMATION

Flight Status: Arrived
Operator: Privately registered:
United States
More flights under this callsign
Pilot: Dominik G. (31997)
Aircraft: CESSNA 172 SKYHAWK
(C172)
More flights by this aircraft type
Origin: KSBA Santa Barbara Mun
United States
Destination: KBUR Bob Hope-Burbank
United States
More flights between these airports :: More routes between these airports
Route: FIM
File this flight plan on PilotEdge
Remarks:
Altitude:
(Current/Filed)
5,500ft
Speed:
(Current/Filed)
104kts
Departed: 17-Jan-21 04:30 PM
Arrived: 17-Jan-21 05:17 PM
Distance/Time
Traveled:
75nm/0:47
Distance/Time
To Go:
Arrived

Flight Plot

Page will automatically refresh every two minutes.


Map Options




Map Legend


Flown Route
Filed Route
Departure Airport
Arrival Airport
Navaid (VOR, NDB)
Fix

Horizontal Profiles

Position Reports

Time Latitude Longitude Heading Altitude Ground
Speed
17-Jan-21 16:10 34.432569 -119.835085 71 18ft 0kts
17-Jan-21 16:11 34.432569 -119.835085 71 18ft 0kts
17-Jan-21 16:12 34.432569 -119.835085 71 18ft 0kts
17-Jan-21 16:13 34.432569 -119.835085 71 18ft 0kts
17-Jan-21 16:14 34.432569 -119.835085 71 18ft 0kts
17-Jan-21 16:15 34.432569 -119.835085 71 18ft 0kts
17-Jan-21 16:16 34.432569 -119.835085 71 18ft 0kts
17-Jan-21 16:17 34.432569 -119.835085 71 18ft 0kts
17-Jan-21 16:18 34.432569 -119.835085 71 18ft 0kts
17-Jan-21 16:19 34.432569 -119.835085 71 18ft 0kts
17-Jan-21 16:20 34.432569 -119.835085 71 18ft 0kts
17-Jan-21 16:21 34.432569 -119.835085 71 18ft 0kts
17-Jan-21 16:22 34.432569 -119.835085 71 18ft 0kts
17-Jan-21 16:23 34.432569 -119.835085 71 18ft 0kts
17-Jan-21 16:24 34.432573 -119.835057 84 18ft 1kts
17-Jan-21 16:25 34.431212 -119.838128 249 16ft 20kts
17-Jan-21 16:26 34.430763 -119.839640 252 15ft 0kts
17-Jan-21 16:27 34.430763 -119.839640 252 15ft 0kts
17-Jan-21 16:28 34.430442 -119.840235 189 15ft 8kts
17-Jan-21 16:29 34.414394 -119.834657 166 640ft 79kts
17-Jan-21 16:30 34.389908 -119.823922 162 1138ft 106kts
17-Jan-21 16:31 34.361986 -119.811442 162 1136ft 102kts
17-Jan-21 16:32 34.337585 -119.794133 85 1256ft 113kts
17-Jan-21 16:33 34.340564 -119.759829 78 2259ft 103kts
17-Jan-21 16:34 34.347907 -119.728663 59 3205ft 96kts
17-Jan-21 16:35 34.361304 -119.701776 47 4099ft 91kts
17-Jan-21 16:36 34.376773 -119.676821 54 4897ft 93kts
17-Jan-21 16:37 34.381144 -119.645187 100 5510ft 116kts
17-Jan-21 16:38 34.377451 -119.607175 93 5538ft 106kts
17-Jan-21 16:39 34.374557 -119.571537 93 5544ft 107kts
17-Jan-21 16:40 34.371571 -119.535496 93 5550ft 107kts
17-Jan-21 16:41 34.368498 -119.499326 93 5556ft 107kts
17-Jan-21 16:42 34.365298 -119.463266 93 5563ft 107kts
17-Jan-21 16:43 34.361952 -119.427197 93 5570ft 107kts
17-Jan-21 16:44 34.358460 -119.391107 93 5578ft 107kts
17-Jan-21 16:45 34.354831 -119.355041 93 5586ft 107kts
17-Jan-21 16:46 34.351097 -119.319099 94 5586ft 107kts
17-Jan-21 16:47 34.347237 -119.283113 94 5585ft 107kts
17-Jan-21 16:48 34.343107 -119.247161 94 5585ft 107kts
17-Jan-21 16:49 34.338516 -119.211711 94 5586ft 106kts
17-Jan-21 16:50 34.336929 -119.177030 74 5588ft 100kts
17-Jan-21 16:51 34.341650 -119.144138 73 5591ft 97kts
17-Jan-21 16:53 34.346299 -119.111954 74 5595ft 95kts
17-Jan-21 16:54 34.347314 -119.079811 83 5598ft 94kts
17-Jan-21 16:55 34.347520 -119.048229 83 5601ft 92kts
17-Jan-21 16:56 34.347929 -119.017387 83 5603ft 91kts
17-Jan-21 16:57 34.348273 -118.986688 83 5605ft 91kts
17-Jan-21 16:58 34.348565 -118.955699 83 5607ft 92kts
17-Jan-21 16:59 34.347577 -118.924520 100 5608ft 96kts
17-Jan-21 17:00 34.343671 -118.890802 96 5612ft 108kts
17-Jan-21 17:01 34.338108 -118.854336 109 5616ft 111kts
17-Jan-21 17:02 34.328607 -118.817790 109 5618ft 112kts
17-Jan-21 17:03 34.319109 -118.781579 109 5619ft 112kts
17-Jan-21 17:04 34.309362 -118.745511 109 5621ft 112kts
17-Jan-21 17:05 34.299274 -118.709571 109 5624ft 113kts
17-Jan-21 17:06 34.288767 -118.673602 109 5627ft 113kts
17-Jan-21 17:07 34.277912 -118.637914 109 5511ft 117kts
17-Jan-21 17:07 34.268459 -118.607942 109 5399ft 107kts
17-Jan-21 17:08 34.256814 -118.572364 109 4908ft 115kts
17-Jan-21 17:10 34.242798 -118.530563 109 4263ft 115kts
17-Jan-21 17:11 34.231174 -118.494784 109 3466ft 114kts
17-Jan-21 17:11 34.222329 -118.465767 109 3227ft 104kts
17-Jan-21 17:12 34.207852 -118.437467 145 2924ft 101kts
17-Jan-21 17:13 34.198319 -118.414186 83 1937ft 83kts
17-Jan-21 17:14 34.198295 -118.387675 95 1098ft 72kts
17-Jan-21 17:15 34.197890 -118.364469 95 727ft 50kts
17-Jan-21 17:16 34.198598 -118.360240 353 723ft 0kts
17-Jan-21 17:17 34.198615 -118.360242 357 723ft 1kts
17-Jan-21 17:18 34.199650 -118.359432 88 724ft 0kts
17-Jan-21 17:19 34.199650 -118.359432 88 724ft 0kts
17-Jan-21 17:20 34.199650 -118.359432 88 724ft 0kts
17-Jan-21 17:21 34.199650 -118.359432 88 724ft 0kts
17-Jan-21 17:22 34.199650 -118.359432 88 724ft 0kts
17-Jan-21 17:23 34.199650 -118.359432 88 724ft 0kts
17-Jan-21 17:24 34.199650 -118.359432 88 724ft 0kts
17-Jan-21 17:25 34.199650 -118.359432 88 724ft 0kts
17-Jan-21 17:26 34.199650 -118.359432 88 724ft 0kts
17-Jan-21 17:27 34.199650 -118.359432 88 724ft 0kts
17-Jan-21 17:28 34.199650 -118.359432 88 724ft 0kts
17-Jan-21 17:29 34.199650 -118.359432 88 724ft 0kts
17-Jan-21 17:30 34.199650 -118.359432 88 724ft 0kts

Navigation Log

Ident Type
Flight plan parsing failed, navigation log unavailable